Airfield :







YOU CAN JOIN US ON...

 
LOGIN :

Register | Disclaimer

   EN    FR    IT 

 









Legend :    VFR   Marginal VFR   IFR   Intensive IFR   Very Intensive IFR
Visi :
Ceiling :
>= 8 km
>= 3000ft
5 to 8 km
1000 to 3000 ft
1500m to 5 km
500 to 1000 ft
800 to 1500m
200 to 500 ft
< 800m
< 200 ft
Symbols :   Thunderstorms  Fog  Heavy snow  Heavy precipitations  Wind > 20 kt






- Airport Elevation : 232 ft
- IATA code : YQM


CYQM - Greater Moncton International

CURRENT METAR :
  • 240500Z 26019G26KT 15SM SCT015 09/07 A2979 RMK SF3 SLP090

EXPIRED METARs :
  • 240400Z 26018G27KT 15SM FEW007 BKN015 10/09 A2974 RMK SF2SF5 SLP075
  • 240350Z 25022G29KT 15SM FEW005 BKN015 10/09 A2973 RMK SF1SF6 SLP072
  • 240328Z 25018G24KT 8SM -SHRA FEW004 BKN012 11/10 A2973 RMK SF1SC6 CVCTV CLD EMBD SLP069
  • 240300Z 25023G29KT 12SM FEW005 BKN012 OVC032 12/10 A2970 RMK SF2SF5SC1 SLP059
  • 240250Z 24022G30KT 8SM FEW004 BKN012 OVC030 12/11 A2969 RMK SF2SF4SC2 PRESRR SLP056 DENSITY ALT 300FT

TAF AMD TAF CYQM
Valid from the 24 at 05:00 until the 25 at 00:00 UTC


240518Z 2405/2424 25018G28KT P6SM SCT015
TEMPO 2405/2415 BKN015
BECMG 2407/2409 24015G25KT
FM241500 24015G25KT P6SM FEW025
FM242200 23012G22KT P6SM FEW030 SCT070 RMK NXT FCST BY 240600Z



MET'MAP, your aeronautical weather chart ! - Copyright ORBIFLY December 2007 - Disclaimer

ORBIFLY MET'MAP TEAM :

Programming & Development : Alexandra Zaïnal
Concept & Development : Baudouin d'Aumeries
Co-Development & Prog : Marc-Olivier Méhu
Technical & hardware support : Manuel Goepfert

Contact : metmap@orbifly.com




SOURCES & CREDITS :

   NOAA